Terminal Aerodrome Forecast
Issued by NWS

Home | Current Version | Previous Version | Text Only | Print | Product List | Glossary On
Versions: 1 2 3 4 5 6 7 8 9 10 11 12 13 14 15 16 17 18 19 20 21
000
FTUS42 KMHX 230500
TAFPGV
TAF
KPGV 230532Z 2306/2406 00000KT P6SM SCT060 BKN150
     FM230900 04002KT 4SM BR SCT050 BKN100
     FM231230 06005KT P6SM VCSH BKN050
     FM231800 08006KT P6SM VCTS BKN050CB
      AMD LTD TO CLD VIS AND WIND=

USA.gov is the U.S. government's official web portal to all federal, state and local government web resources and services.